sensor_id;sensor_type;location;lat;lon;timestamp;P1;durP1;ratioP1;P2;durP2;ratioP2
20623;SDS011;10471;42.736;23.346;2023-05-14T00:00:37;5.77;;;3.30;;
20623;SDS011;10471;42.736;23.346;2023-05-14T00:03:02;4.60;;;3.37;;
20623;SDS011;10471;42.736;23.346;2023-05-14T00:05:28;5.20;;;3.60;;
20623;SDS011;10471;42.736;23.346;2023-05-14T00:07:53;5.10;;;3.53;;
20623;SDS011;10471;42.736;23.346;2023-05-14T00:10:19;5.10;;;3.77;;
20623;SDS011;10471;42.736;23.346;2023-05-14T00:12:45;5.67;;;3.40;;
20623;SDS011;10471;42.736;23.346;2023-05-14T00:15:11;7.27;;;4.00;;
20623;SDS011;10471;42.736;23.346;2023-05-14T00:17:36;4.97;;;3.77;;
20623;SDS011;10471;42.736;23.346;2023-05-14T00:20:02;5.40;;;3.63;;
20623;SDS011;10471;42.736;23.346;2023-05-14T00:22:31;4.73;;;3.53;;
20623;SDS011;10471;42.736;23.346;2023-05-14T00:24:57;6.13;;;3.60;;
20623;SDS011;10471;42.736;23.346;2023-05-14T00:27:22;5.97;;;3.50;;
20623;SDS011;10471;42.736;23.346;2023-05-14T00:29:47;4.80;;;3.67;;
20623;SDS011;10471;42.736;23.346;2023-05-14T00:32:13;7.77;;;4.33;;
20623;SDS011;10471;42.736;23.346;2023-05-14T00:34:38;4.73;;;3.60;;
20623;SDS011;10471;42.736;23.346;2023-05-14T00:37:04;6.03;;;3.47;;
20623;SDS011;10471;42.736;23.346;2023-05-14T00:39:29;8.50;;;3.40;;
20623;SDS011;10471;42.736;23.346;2023-05-14T00:41:54;6.00;;;3.47;;
20623;SDS011;10471;42.736;23.346;2023-05-14T00:44:20;4.03;;;3.30;;
20623;SDS011;10471;42.736;23.346;2023-05-14T00:46:45;4.90;;;3.23;;
20623;SDS011;10471;42.736;23.346;2023-05-14T00:49:11;4.37;;;3.40;;
20623;SDS011;10471;42.736;23.346;2023-05-14T00:51:37;6.23;;;3.60;;
20623;SDS011;10471;42.736;23.346;2023-05-14T00:54:03;5.63;;;2.90;;
20623;SDS011;10471;42.736;23.346;2023-05-14T00:56:30;3.60;;;3.00;;
20623;SDS011;10471;42.736;23.346;2023-05-14T00:58:55;5.27;;;3.00;;
20623;SDS011;10471;42.736;23.346;2023-05-14T01:01:21;4.00;;;3.00;;
20623;SDS011;10471;42.736;23.346;2023-05-14T01:03:46;3.47;;;3.10;;
20623;SDS011;10471;42.736;23.346;2023-05-14T01:06:33;5.77;;;3.43;;
20623;SDS011;10471;42.736;23.346;2023-05-14T01:09:24;4.50;;;3.00;;
20623;SDS011;10471;42.736;23.346;2023-05-14T01:11:59;3.87;;;2.93;;
20623;SDS011;10471;42.736;23.346;2023-05-14T01:17:03;3.70;;;2.87;;
20623;SDS011;10471;42.736;23.346;2023-05-14T01:19:41;4.93;;;2.90;;
20623;SDS011;10471;42.736;23.346;2023-05-14T01:22:08;4.60;;;2.70;;
20623;SDS011;10471;42.736;23.346;2023-05-14T01:24:33;6.30;;;3.00;;
20623;SDS011;10471;42.736;23.346;2023-05-14T01:27:43;5.53;;;2.60;;
20623;SDS011;10471;42.736;23.346;2023-05-14T01:30:02;4.20;;;2.50;;
20623;SDS011;10471;42.736;23.346;2023-05-14T01:32:34;4.13;;;2.53;;
20623;SDS011;10471;42.736;23.346;2023-05-14T01:35:00;9.83;;;2.60;;
20623;SDS011;10471;42.736;23.346;2023-05-14T01:37:26;4.43;;;2.67;;
20623;SDS011;10471;42.736;23.346;2023-05-14T01:39:54;3.00;;;2.40;;
20623;SDS011;10471;42.736;23.346;2023-05-14T01:42:20;5.30;;;2.63;;
20623;SDS011;10471;42.736;23.346;2023-05-14T01:44:47;4.17;;;2.63;;
20623;SDS011;10471;42.736;23.346;2023-05-14T01:47:12;4.37;;;2.67;;
20623;SDS011;10471;42.736;23.346;2023-05-14T01:49:37;3.87;;;2.60;;
20623;SDS011;10471;42.736;23.346;2023-05-14T01:52:03;3.53;;;2.60;;
20623;SDS011;10471;42.736;23.346;2023-05-14T01:54:28;3.93;;;2.30;;
20623;SDS011;10471;42.736;23.346;2023-05-14T01:56:54;3.03;;;2.57;;
20623;SDS011;10471;42.736;23.346;2023-05-14T01:59:19;3.47;;;2.60;;
20623;SDS011;10471;42.736;23.346;2023-05-14T02:01:45;3.03;;;2.53;;
20623;SDS011;10471;42.736;23.346;2023-05-14T02:04:10;3.27;;;2.30;;
20623;SDS011;10471;42.736;23.346;2023-05-14T02:06:36;11.50;;;2.83;;
20623;SDS011;10471;42.736;23.346;2023-05-14T02:09:01;2.73;;;2.30;;
20623;SDS011;10471;42.736;23.346;2023-05-14T02:11:27;5.67;;;2.57;;
20623;SDS011;10471;42.736;23.346;2023-05-14T02:13:52;2.93;;;2.40;;
20623;SDS011;10471;42.736;23.346;2023-05-14T02:16:17;2.60;;;2.23;;
20623;SDS011;10471;42.736;23.346;2023-05-14T02:18:43;3.57;;;2.40;;
20623;SDS011;10471;42.736;23.346;2023-05-14T02:21:08;3.20;;;2.53;;
20623;SDS011;10471;42.736;23.346;2023-05-14T02:23:34;3.40;;;2.30;;
20623;SDS011;10471;42.736;23.346;2023-05-14T02:26:00;3.30;;;2.30;;
20623;SDS011;10471;42.736;23.346;2023-05-14T02:28:25;4.10;;;2.40;;
20623;SDS011;10471;42.736;23.346;2023-05-14T02:30:50;3.90;;;2.53;;
20623;SDS011;10471;42.736;23.346;2023-05-14T02:33:16;3.10;;;2.23;;
20623;SDS011;10471;42.736;23.346;2023-05-14T02:35:41;3.77;;;2.20;;
20623;SDS011;10471;42.736;23.346;2023-05-14T02:38:06;2.80;;;2.30;;
20623;SDS011;10471;42.736;23.346;2023-05-14T02:40:32;3.57;;;2.50;;
20623;SDS011;10471;42.736;23.346;2023-05-14T02:42:58;5.00;;;2.40;;
20623;SDS011;10471;42.736;23.346;2023-05-14T02:45:23;2.93;;;2.40;;
20623;SDS011;10471;42.736;23.346;2023-05-14T02:47:48;8.33;;;2.30;;
20623;SDS011;10471;42.736;23.346;2023-05-14T02:50:14;4.10;;;2.37;;
20623;SDS011;10471;42.736;23.346;2023-05-14T02:52:39;3.67;;;2.60;;
20623;SDS011;10471;42.736;23.346;2023-05-14T02:55:05;6.20;;;2.73;;
20623;SDS011;10471;42.736;23.346;2023-05-14T02:57:30;5.23;;;2.60;;
20623;SDS011;10471;42.736;23.346;2023-05-14T02:59:56;3.27;;;2.30;;
20623;SDS011;10471;42.736;23.346;2023-05-14T03:02:21;4.53;;;2.60;;
20623;SDS011;10471;42.736;23.346;2023-05-14T03:04:46;3.63;;;2.40;;
20623;SDS011;10471;42.736;23.346;2023-05-14T03:07:12;3.00;;;2.30;;
20623;SDS011;10471;42.736;23.346;2023-05-14T03:09:37;3.90;;;2.53;;
20623;SDS011;10471;42.736;23.346;2023-05-14T03:12:03;5.60;;;2.40;;
20623;SDS011;10471;42.736;23.346;2023-05-14T03:14:28;4.10;;;2.73;;
20623;SDS011;10471;42.736;23.346;2023-05-14T03:16:54;3.40;;;2.50;;
20623;SDS011;10471;42.736;23.346;2023-05-14T03:19:19;4.67;;;2.50;;
20623;SDS011;10471;42.736;23.346;2023-05-14T03:21:44;2.10;;;1.90;;
20623;SDS011;10471;42.736;23.346;2023-05-14T03:24:10;4.17;;;2.70;;
20623;SDS011;10471;42.736;23.346;2023-05-14T03:26:35;6.77;;;2.47;;
20623;SDS011;10471;42.736;23.346;2023-05-14T03:29:01;4.30;;;2.80;;
20623;SDS011;10471;42.736;23.346;2023-05-14T03:31:27;2.60;;;2.13;;
20623;SDS011;10471;42.736;23.346;2023-05-14T03:33:53;2.43;;;2.07;;
20623;SDS011;10471;42.736;23.346;2023-05-14T03:36:19;3.47;;;2.43;;
20623;SDS011;10471;42.736;23.346;2023-05-14T03:38:44;3.10;;;2.30;;
20623;SDS011;10471;42.736;23.346;2023-05-14T03:41:09;4.97;;;2.63;;
20623;SDS011;10471;42.736;23.346;2023-05-14T03:43:35;3.93;;;2.30;;
20623;SDS011;10471;42.736;23.346;2023-05-14T03:46:00;4.43;;;2.40;;
20623;SDS011;10471;42.736;23.346;2023-05-14T03:48:25;3.07;;;2.50;;
20623;SDS011;10471;42.736;23.346;2023-05-14T03:50:51;3.97;;;2.43;;
20623;SDS011;10471;42.736;23.346;2023-05-14T03:53:16;5.30;;;2.80;;
20623;SDS011;10471;42.736;23.346;2023-05-14T03:55:42;3.17;;;2.37;;
20623;SDS011;10471;42.736;23.346;2023-05-14T03:58:07;3.03;;;2.67;;
20623;SDS011;10471;42.736;23.346;2023-05-14T04:00:38;4.50;;;2.47;;
20623;SDS011;10471;42.736;23.346;2023-05-14T04:03:05;4.37;;;2.77;;
20623;SDS011;10471;42.736;23.346;2023-05-14T04:05:31;4.43;;;3.10;;
20623;SDS011;10471;42.736;23.346;2023-05-14T04:07:56;5.83;;;2.80;;
20623;SDS011;10471;42.736;23.346;2023-05-14T04:10:22;4.83;;;3.00;;
20623;SDS011;10471;42.736;23.346;2023-05-14T04:12:47;4.43;;;3.20;;
20623;SDS011;10471;42.736;23.346;2023-05-14T04:15:13;3.83;;;3.10;;
20623;SDS011;10471;42.736;23.346;2023-05-14T04:17:38;4.10;;;3.20;;
20623;SDS011;10471;42.736;23.346;2023-05-14T04:20:04;3.73;;;2.70;;
20623;SDS011;10471;42.736;23.346;2023-05-14T04:22:30;4.80;;;3.17;;
20623;SDS011;10471;42.736;23.346;2023-05-14T04:24:56;4.10;;;3.17;;
20623;SDS011;10471;42.736;23.346;2023-05-14T04:27:21;5.00;;;2.93;;
20623;SDS011;10471;42.736;23.346;2023-05-14T04:29:47;4.77;;;3.13;;
20623;SDS011;10471;42.736;23.346;2023-05-14T04:32:13;7.17;;;3.53;;
20623;SDS011;10471;42.736;23.346;2023-05-14T04:34:38;4.07;;;3.30;;
20623;SDS011;10471;42.736;23.346;2023-05-14T04:37:05;6.80;;;3.17;;
20623;SDS011;10471;42.736;23.346;2023-05-14T04:39:30;5.03;;;3.17;;
20623;SDS011;10471;42.736;23.346;2023-05-14T04:41:56;4.33;;;3.30;;
20623;SDS011;10471;42.736;23.346;2023-05-14T04:44:21;6.00;;;4.10;;
20623;SDS011;10471;42.736;23.346;2023-05-14T04:46:46;4.93;;;3.80;;
20623;SDS011;10471;42.736;23.346;2023-05-14T04:49:12;6.37;;;3.40;;
20623;SDS011;10471;42.736;23.346;2023-05-14T04:51:37;6.77;;;3.60;;
20623;SDS011;10471;42.736;23.346;2023-05-14T04:54:02;5.90;;;3.57;;
20623;SDS011;10471;42.736;23.346;2023-05-14T04:56:28;4.00;;;3.33;;
20623;SDS011;10471;42.736;23.346;2023-05-14T04:58:53;8.00;;;3.43;;
20623;SDS011;10471;42.736;23.346;2023-05-14T05:01:19;5.07;;;3.60;;
20623;SDS011;10471;42.736;23.346;2023-05-14T05:03:44;4.87;;;3.43;;
20623;SDS011;10471;42.736;23.346;2023-05-14T05:06:10;5.43;;;3.73;;
20623;SDS011;10471;42.736;23.346;2023-05-14T05:08:35;6.30;;;3.87;;
20623;SDS011;10471;42.736;23.346;2023-05-14T05:11:01;5.07;;;3.70;;
20623;SDS011;10471;42.736;23.346;2023-05-14T05:13:26;7.73;;;4.47;;
20623;SDS011;10471;42.736;23.346;2023-05-14T05:15:52;7.90;;;4.20;;
20623;SDS011;10471;42.736;23.346;2023-05-14T05:18:17;6.07;;;4.27;;
20623;SDS011;10471;42.736;23.346;2023-05-14T05:20:43;11.27;;;5.00;;
20623;SDS011;10471;42.736;23.346;2023-05-14T05:23:08;12.70;;;8.77;;
20623;SDS011;10471;42.736;23.346;2023-05-14T05:25:33;10.27;;;8.83;;
20623;SDS011;10471;42.736;23.346;2023-05-14T05:27:59;11.30;;;8.80;;
20623;SDS011;10471;42.736;23.346;2023-05-14T05:30:24;8.07;;;6.03;;
20623;SDS011;10471;42.736;23.346;2023-05-14T05:32:50;7.90;;;5.80;;
20623;SDS011;10471;42.736;23.346;2023-05-14T05:35:15;7.23;;;5.13;;
20623;SDS011;10471;42.736;23.346;2023-05-14T05:37:41;6.33;;;5.50;;
20623;SDS011;10471;42.736;23.346;2023-05-14T05:40:07;9.57;;;7.03;;
20623;SDS011;10471;42.736;23.346;2023-05-14T05:42:34;6.40;;;5.70;;
20623;SDS011;10471;42.736;23.346;2023-05-14T05:44:59;8.10;;;5.77;;
20623;SDS011;10471;42.736;23.346;2023-05-14T05:47:24;8.17;;;5.63;;
20623;SDS011;10471;42.736;23.346;2023-05-14T05:49:50;7.37;;;5.80;;
20623;SDS011;10471;42.736;23.346;2023-05-14T05:52:15;14.67;;;9.10;;
20623;SDS011;10471;42.736;23.346;2023-05-14T05:54:41;17.03;;;8.67;;
20623;SDS011;10471;42.736;23.346;2023-05-14T05:57:06;23.93;;;13.50;;
20623;SDS011;10471;42.736;23.346;2023-05-14T05:59:31;21.67;;;13.33;;
20623;SDS011;10471;42.736;23.346;2023-05-14T06:01:57;15.70;;;11.80;;
20623;SDS011;10471;42.736;23.346;2023-05-14T06:04:22;13.77;;;10.63;;
20623;SDS011;10471;42.736;23.346;2023-05-14T06:06:48;11.77;;;7.53;;
20623;SDS011;10471;42.736;23.346;2023-05-14T06:09:13;8.70;;;6.53;;
20623;SDS011;10471;42.736;23.346;2023-05-14T06:11:38;7.73;;;6.30;;
20623;SDS011;10471;42.736;23.346;2023-05-14T06:14:04;8.00;;;6.03;;
20623;SDS011;10471;42.736;23.346;2023-05-14T06:16:29;8.10;;;5.87;;
20623;SDS011;10471;42.736;23.346;2023-05-14T06:18:55;7.13;;;5.70;;
20623;SDS011;10471;42.736;23.346;2023-05-14T06:21:20;8.77;;;6.73;;
20623;SDS011;10471;42.736;23.346;2023-05-14T06:23:45;9.10;;;6.20;;
20623;SDS011;10471;42.736;23.346;2023-05-14T06:26:11;7.60;;;6.40;;
20623;SDS011;10471;42.736;23.346;2023-05-14T06:28:36;8.57;;;6.60;;
20623;SDS011;10471;42.736;23.346;2023-05-14T06:31:02;8.67;;;6.60;;
20623;SDS011;10471;42.736;23.346;2023-05-14T06:33:27;9.67;;;6.47;;
20623;SDS011;10471;42.736;23.346;2023-05-14T06:35:57;12.37;;;7.93;;
20623;SDS011;10471;42.736;23.346;2023-05-14T06:38:23;8.87;;;7.10;;
20623;SDS011;10471;42.736;23.346;2023-05-14T06:40:49;10.93;;;7.40;;
20623;SDS011;10471;42.736;23.346;2023-05-14T06:43:15;10.13;;;7.53;;
20623;SDS011;10471;42.736;23.346;2023-05-14T06:45:41;11.37;;;8.00;;
20623;SDS011;10471;42.736;23.346;2023-05-14T06:48:06;11.43;;;7.37;;
20623;SDS011;10471;42.736;23.346;2023-05-14T06:50:34;12.80;;;7.23;;
20623;SDS011;10471;42.736;23.346;2023-05-14T06:52:59;10.53;;;6.80;;
20623;SDS011;10471;42.736;23.346;2023-05-14T06:55:25;9.43;;;7.07;;
20623;SDS011;10471;42.736;23.346;2023-05-14T06:57:50;11.87;;;6.93;;
20623;SDS011;10471;42.736;23.346;2023-05-14T07:00:15;9.00;;;6.20;;
20623;SDS011;10471;42.736;23.346;2023-05-14T07:02:41;12.10;;;7.13;;
20623;SDS011;10471;42.736;23.346;2023-05-14T07:05:07;11.13;;;7.03;;
20623;SDS011;10471;42.736;23.346;2023-05-14T07:07:32;13.03;;;7.57;;
20623;SDS011;10471;42.736;23.346;2023-05-14T07:09:58;13.77;;;7.80;;
20623;SDS011;10471;42.736;23.346;2023-05-14T07:12:23;13.70;;;8.80;;
20623;SDS011;10471;42.736;23.346;2023-05-14T07:14:49;10.03;;;7.27;;
20623;SDS011;10471;42.736;23.346;2023-05-14T07:17:15;7.87;;;6.17;;
20623;SDS011;10471;42.736;23.346;2023-05-14T07:19:40;9.47;;;6.97;;
20623;SDS011;10471;42.736;23.346;2023-05-14T07:22:05;10.13;;;7.03;;
20623;SDS011;10471;42.736;23.346;2023-05-14T07:24:31;10.27;;;7.10;;
20623;SDS011;10471;42.736;23.346;2023-05-14T07:26:56;9.20;;;7.13;;
20623;SDS011;10471;42.736;23.346;2023-05-14T07:29:22;8.97;;;6.93;;
20623;SDS011;10471;42.736;23.346;2023-05-14T07:31:49;10.23;;;7.03;;
20623;SDS011;10471;42.736;23.346;2023-05-14T07:34:15;9.83;;;6.47;;
20623;SDS011;10471;42.736;23.346;2023-05-14T07:36:40;8.43;;;7.30;;
20623;SDS011;10471;42.736;23.346;2023-05-14T07:39:06;10.30;;;6.83;;
20623;SDS011;10471;42.736;23.346;2023-05-14T07:41:31;9.23;;;6.90;;
20623;SDS011;10471;42.736;23.346;2023-05-14T07:43:57;10.50;;;7.47;;
20623;SDS011;10471;42.736;23.346;2023-05-14T07:46:22;8.93;;;6.73;;
20623;SDS011;10471;42.736;23.346;2023-05-14T07:48:49;9.07;;;6.47;;
20623;SDS011;10471;42.736;23.346;2023-05-14T07:51:15;11.67;;;7.07;;
20623;SDS011;10471;42.736;23.346;2023-05-14T07:53:40;13.57;;;6.70;;
20623;SDS011;10471;42.736;23.346;2023-05-14T07:56:06;9.43;;;6.97;;
20623;SDS011;10471;42.736;23.346;2023-05-14T07:58:31;8.70;;;6.40;;
20623;SDS011;10471;42.736;23.346;2023-05-14T08:00:57;9.77;;;6.30;;
20623;SDS011;10471;42.736;23.346;2023-05-14T08:03:22;9.30;;;6.10;;
20623;SDS011;10471;42.736;23.346;2023-05-14T08:05:48;7.57;;;6.27;;
20623;SDS011;10471;42.736;23.346;2023-05-14T08:08:13;7.83;;;6.20;;
20623;SDS011;10471;42.736;23.346;2023-05-14T08:10:38;8.50;;;6.63;;
20623;SDS011;10471;42.736;23.346;2023-05-14T08:13:04;9.90;;;7.00;;
20623;SDS011;10471;42.736;23.346;2023-05-14T08:15:29;9.13;;;6.73;;
20623;SDS011;10471;42.736;23.346;2023-05-14T08:17:54;7.83;;;6.40;;
20623;SDS011;10471;42.736;23.346;2023-05-14T08:20:20;9.87;;;7.30;;
20623;SDS011;10471;42.736;23.346;2023-05-14T08:22:46;10.53;;;7.13;;
20623;SDS011;10471;42.736;23.346;2023-05-14T08:25:11;11.77;;;7.30;;
20623;SDS011;10471;42.736;23.346;2023-05-14T08:27:36;11.00;;;6.60;;
20623;SDS011;10471;42.736;23.346;2023-05-14T08:30:02;11.97;;;7.17;;
20623;SDS011;10471;42.736;23.346;2023-05-14T08:32:28;9.43;;;6.00;;
20623;SDS011;10471;42.736;23.346;2023-05-14T08:34:53;11.83;;;6.63;;
20623;SDS011;10471;42.736;23.346;2023-05-14T08:37:19;8.47;;;6.33;;
20623;SDS011;10471;42.736;23.346;2023-05-14T08:39:44;9.67;;;6.50;;
20623;SDS011;10471;42.736;23.346;2023-05-14T08:42:11;10.80;;;6.77;;
20623;SDS011;10471;42.736;23.346;2023-05-14T08:44:53;11.33;;;6.60;;
20623;SDS011;10471;42.736;23.346;2023-05-14T08:47:26;10.50;;;6.77;;
20623;SDS011;10471;42.736;23.346;2023-05-14T08:49:58;9.13;;;6.37;;
20623;SDS011;10471;42.736;23.346;2023-05-14T08:52:26;9.23;;;6.40;;
20623;SDS011;10471;42.736;23.346;2023-05-14T08:54:52;9.63;;;6.33;;
20623;SDS011;10471;42.736;23.346;2023-05-14T08:57:18;9.00;;;6.70;;
20623;SDS011;10471;42.736;23.346;2023-05-14T08:59:44;8.43;;;6.07;;
20623;SDS011;10471;42.736;23.346;2023-05-14T09:02:10;8.93;;;6.73;;
20623;SDS011;10471;42.736;23.346;2023-05-14T09:04:39;8.97;;;6.50;;
20623;SDS011;10471;42.736;23.346;2023-05-14T09:07:05;10.90;;;7.07;;
20623;SDS011;10471;42.736;23.346;2023-05-14T09:09:31;9.20;;;6.37;;
20623;SDS011;10471;42.736;23.346;2023-05-14T09:11:57;10.30;;;6.67;;
20623;SDS011;10471;42.736;23.346;2023-05-14T09:14:22;10.80;;;6.93;;
20623;SDS011;10471;42.736;23.346;2023-05-14T09:16:48;8.33;;;6.53;;
20623;SDS011;10471;42.736;23.346;2023-05-14T09:19:15;7.70;;;6.03;;
20623;SDS011;10471;42.736;23.346;2023-05-14T09:21:43;8.77;;;6.30;;
20623;SDS011;10471;42.736;23.346;2023-05-14T09:24:09;8.57;;;5.90;;
20623;SDS011;10471;42.736;23.346;2023-05-14T09:26:43;8.33;;;6.50;;
20623;SDS011;10471;42.736;23.346;2023-05-14T09:29:08;8.40;;;7.17;;
20623;SDS011;10471;42.736;23.346;2023-05-14T09:31:34;16.73;;;10.90;;
20623;SDS011;10471;42.736;23.346;2023-05-14T09:34:01;11.63;;;8.93;;
20623;SDS011;10471;42.736;23.346;2023-05-14T09:36:26;6.73;;;5.60;;
20623;SDS011;10471;42.736;23.346;2023-05-14T09:38:52;10.57;;;6.07;;
20623;SDS011;10471;42.736;23.346;2023-05-14T09:41:20;10.00;;;6.63;;
20623;SDS011;10471;42.736;23.346;2023-05-14T09:43:47;9.87;;;6.43;;
20623;SDS011;10471;42.736;23.346;2023-05-14T09:46:12;8.57;;;7.10;;
20623;SDS011;10471;42.736;23.346;2023-05-14T09:48:38;7.63;;;6.30;;
20623;SDS011;10471;42.736;23.346;2023-05-14T09:51:03;8.87;;;7.33;;
20623;SDS011;10471;42.736;23.346;2023-05-14T09:53:29;6.63;;;5.90;;
20623;SDS011;10471;42.736;23.346;2023-05-14T09:55:57;8.23;;;6.73;;
20623;SDS011;10471;42.736;23.346;2023-05-14T09:58:22;8.20;;;6.93;;
20623;SDS011;10471;42.736;23.346;2023-05-14T10:00:47;9.43;;;7.13;;
20623;SDS011;10471;42.736;23.346;2023-05-14T10:03:14;10.00;;;6.97;;
20623;SDS011;10471;42.736;23.346;2023-05-14T10:05:41;8.33;;;6.50;;
20623;SDS011;10471;42.736;23.346;2023-05-14T10:08:13;34.17;;;30.87;;
20623;SDS011;10471;42.736;23.346;2023-05-14T10:10:50;20.87;;;15.90;;
20623;SDS011;10471;42.736;23.346;2023-05-14T10:13:21;16.50;;;12.37;;
20623;SDS011;10471;42.736;23.346;2023-05-14T10:16:05;12.87;;;8.30;;
20623;SDS011;10471;42.736;23.346;2023-05-14T10:18:35;10.53;;;7.97;;
20623;SDS011;10471;42.736;23.346;2023-05-14T10:21:06;13.33;;;9.90;;
20623;SDS011;10471;42.736;23.346;2023-05-14T10:23:32;13.93;;;11.23;;
20623;SDS011;10471;42.736;23.346;2023-05-14T10:25:58;17.27;;;12.53;;
20623;SDS011;10471;42.736;23.346;2023-05-14T10:28:25;32.83;;;23.23;;
20623;SDS011;10471;42.736;23.346;2023-05-14T10:30:51;13.43;;;8.80;;
20623;SDS011;10471;42.736;23.346;2023-05-14T10:33:18;8.43;;;7.53;;
20623;SDS011;10471;42.736;23.346;2023-05-14T10:38:32;11.17;;;10.03;;
20623;SDS011;10471;42.736;23.346;2023-05-14T10:40:59;12.00;;;8.70;;
20623;SDS011;10471;42.736;23.346;2023-05-14T10:43:27;9.20;;;8.27;;
20623;SDS011;10471;42.736;23.346;2023-05-14T10:45:54;10.97;;;9.23;;
20623;SDS011;10471;42.736;23.346;2023-05-14T10:48:20;10.37;;;8.77;;
20623;SDS011;10471;42.736;23.346;2023-05-14T10:50:46;11.57;;;10.10;;
20623;SDS011;10471;42.736;23.346;2023-05-14T10:53:12;13.37;;;9.87;;
20623;SDS011;10471;42.736;23.346;2023-05-14T10:55:41;17.43;;;13.67;;
20623;SDS011;10471;42.736;23.346;2023-05-14T10:58:06;12.43;;;10.77;;
20623;SDS011;10471;42.736;23.346;2023-05-14T11:00:36;21.60;;;16.97;;
20623;SDS011;10471;42.736;23.346;2023-05-14T11:03:02;12.10;;;10.83;;
20623;SDS011;10471;42.736;23.346;2023-05-14T11:05:29;14.03;;;12.40;;
20623;SDS011;10471;42.736;23.346;2023-05-14T11:07:56;12.07;;;10.57;;
20623;SDS011;10471;42.736;23.346;2023-05-14T11:10:22;12.53;;;10.43;;
20623;SDS011;10471;42.736;23.346;2023-05-14T11:12:54;12.73;;;9.67;;
20623;SDS011;10471;42.736;23.346;2023-05-14T11:15:21;11.17;;;9.40;;
20623;SDS011;10471;42.736;23.346;2023-05-14T11:17:47;12.03;;;9.87;;
20623;SDS011;10471;42.736;23.346;2023-05-14T11:20:14;10.00;;;9.00;;
20623;SDS011;10471;42.736;23.346;2023-05-14T11:22:40;9.83;;;8.70;;
20623;SDS011;10471;42.736;23.346;2023-05-14T11:25:08;11.63;;;9.73;;
20623;SDS011;10471;42.736;23.346;2023-05-14T11:27:35;11.97;;;10.37;;
20623;SDS011;10471;42.736;23.346;2023-05-14T11:30:01;11.90;;;9.50;;
20623;SDS011;10471;42.736;23.346;2023-05-14T11:32:28;11.67;;;9.77;;
20623;SDS011;10471;42.736;23.346;2023-05-14T11:34:55;10.90;;;9.77;;
20623;SDS011;10471;42.736;23.346;2023-05-14T11:37:21;10.67;;;9.03;;
20623;SDS011;10471;42.736;23.346;2023-05-14T11:39:47;11.73;;;8.87;;
20623;SDS011;10471;42.736;23.346;2023-05-14T11:42:14;9.30;;;8.40;;
20623;SDS011;10471;42.736;23.346;2023-05-14T11:44:42;9.50;;;8.60;;
20623;SDS011;10471;42.736;23.346;2023-05-14T11:47:09;10.13;;;9.07;;
20623;SDS011;10471;42.736;23.346;2023-05-14T11:49:35;9.10;;;8.20;;
20623;SDS011;10471;42.736;23.346;2023-05-14T11:52:02;9.80;;;8.80;;
20623;SDS011;10471;42.736;23.346;2023-05-14T11:54:30;8.53;;;7.73;;
20623;SDS011;10471;42.736;23.346;2023-05-14T11:56:57;9.93;;;8.23;;
20623;SDS011;10471;42.736;23.346;2023-05-14T11:59:27;12.03;;;10.43;;
20623;SDS011;10471;42.736;23.346;2023-05-14T12:01:55;11.00;;;9.40;;
20623;SDS011;10471;42.736;23.346;2023-05-14T12:04:21;9.60;;;8.60;;
20623;SDS011;10471;42.736;23.346;2023-05-14T12:06:56;10.70;;;8.73;;
20623;SDS011;10471;42.736;23.346;2023-05-14T12:09:22;9.97;;;8.30;;
20623;SDS011;10471;42.736;23.346;2023-05-14T12:11:48;9.80;;;8.73;;
20623;SDS011;10471;42.736;23.346;2023-05-14T12:14:17;10.63;;;9.27;;
20623;SDS011;10471;42.736;23.346;2023-05-14T12:16:43;11.37;;;10.27;;
20623;SDS011;10471;42.736;23.346;2023-05-14T12:19:11;9.97;;;8.97;;
20623;SDS011;10471;42.736;23.346;2023-05-14T12:21:38;10.00;;;9.00;;
20623;SDS011;10471;42.736;23.346;2023-05-14T12:24:08;10.13;;;9.10;;
20623;SDS011;10471;42.736;23.346;2023-05-14T12:26:37;10.17;;;9.13;;
20623;SDS011;10471;42.736;23.346;2023-05-14T12:29:03;10.20;;;9.07;;
20623;SDS011;10471;42.736;23.346;2023-05-14T12:31:29;9.47;;;8.50;;
20623;SDS011;10471;42.736;23.346;2023-05-14T12:33:55;11.80;;;9.63;;
20623;SDS011;10471;42.736;23.346;2023-05-14T12:36:21;11.07;;;9.70;;
20623;SDS011;10471;42.736;23.346;2023-05-14T12:38:47;13.93;;;11.17;;
20623;SDS011;10471;42.736;23.346;2023-05-14T12:41:13;12.53;;;10.37;;
20623;SDS011;10471;42.736;23.346;2023-05-14T12:43:39;12.13;;;10.50;;
20623;SDS011;10471;42.736;23.346;2023-05-14T12:46:07;13.53;;;11.33;;
20623;SDS011;10471;42.736;23.346;2023-05-14T12:48:32;14.97;;;12.53;;
20623;SDS011;10471;42.736;23.346;2023-05-14T12:50:57;15.23;;;12.67;;
20623;SDS011;10471;42.736;23.346;2023-05-14T12:53:23;14.37;;;12.50;;
20623;SDS011;10471;42.736;23.346;2023-05-14T12:55:48;14.13;;;11.83;;
20623;SDS011;10471;42.736;23.346;2023-05-14T12:58:14;15.93;;;12.57;;
20623;SDS011;10471;42.736;23.346;2023-05-14T13:00:40;16.93;;;12.87;;
20623;SDS011;10471;42.736;23.346;2023-05-14T13:03:05;17.43;;;13.47;;
20623;SDS011;10471;42.736;23.346;2023-05-14T13:05:31;16.23;;;12.93;;
20623;SDS011;10471;42.736;23.346;2023-05-14T13:07:57;15.57;;;12.83;;
20623;SDS011;10471;42.736;23.346;2023-05-14T13:10:24;16.67;;;13.77;;
20623;SDS011;10471;42.736;23.346;2023-05-14T13:12:50;15.07;;;12.73;;
20623;SDS011;10471;42.736;23.346;2023-05-14T13:15:16;17.30;;;13.30;;
20623;SDS011;10471;42.736;23.346;2023-05-14T13:17:42;15.83;;;13.00;;
20623;SDS011;10471;42.736;23.346;2023-05-14T13:20:08;15.37;;;13.27;;
20623;SDS011;10471;42.736;23.346;2023-05-14T13:22:33;17.03;;;14.20;;
20623;SDS011;10471;42.736;23.346;2023-05-14T13:24:59;16.20;;;13.13;;
20623;SDS011;10471;42.736;23.346;2023-05-14T13:27:24;16.43;;;14.13;;
20623;SDS011;10471;42.736;23.346;2023-05-14T13:29:50;16.80;;;13.97;;
20623;SDS011;10471;42.736;23.346;2023-05-14T13:32:15;17.00;;;13.47;;
20623;SDS011;10471;42.736;23.346;2023-05-14T13:34:40;17.67;;;13.93;;
20623;SDS011;10471;42.736;23.346;2023-05-14T13:37:07;23.90;;;18.63;;
20623;SDS011;10471;42.736;23.346;2023-05-14T13:39:33;15.93;;;13.33;;
20623;SDS011;10471;42.736;23.346;2023-05-14T13:41:59;17.17;;;13.93;;
20623;SDS011;10471;42.736;23.346;2023-05-14T13:44:25;15.33;;;12.80;;
20623;SDS011;10471;42.736;23.346;2023-05-14T13:46:51;16.63;;;13.50;;
20623;SDS011;10471;42.736;23.346;2023-05-14T13:49:16;14.00;;;11.90;;
20623;SDS011;10471;42.736;23.346;2023-05-14T13:51:42;15.17;;;13.53;;
20623;SDS011;10471;42.736;23.346;2023-05-14T13:54:07;16.23;;;12.77;;
20623;SDS011;10471;42.736;23.346;2023-05-14T13:56:33;17.07;;;13.67;;
20623;SDS011;10471;42.736;23.346;2023-05-14T13:58:58;17.23;;;13.83;;
20623;SDS011;10471;42.736;23.346;2023-05-14T14:01:24;15.93;;;14.07;;
20623;SDS011;10471;42.736;23.346;2023-05-14T14:03:49;16.80;;;13.87;;
20623;SDS011;10471;42.736;23.346;2023-05-14T14:06:15;20.30;;;17.33;;
20623;SDS011;10471;42.736;23.346;2023-05-14T14:08:40;16.37;;;14.20;;
20623;SDS011;10471;42.736;23.346;2023-05-14T14:11:06;15.80;;;14.00;;
20623;SDS011;10471;42.736;23.346;2023-05-14T14:13:31;15.70;;;13.70;;
20623;SDS011;10471;42.736;23.346;2023-05-14T14:15:57;15.87;;;14.23;;
20623;SDS011;10471;42.736;23.346;2023-05-14T14:18:22;17.33;;;13.97;;
20623;SDS011;10471;42.736;23.346;2023-05-14T14:20:47;16.87;;;14.43;;
20623;SDS011;10471;42.736;23.346;2023-05-14T14:23:13;16.20;;;14.27;;
20623;SDS011;10471;42.736;23.346;2023-05-14T14:25:38;18.53;;;15.00;;